Time;durP1;ratioP1;P1;durP2;ratioP2;P2;SDS_P1;SDS_P2;PMS_P1;PMS_P2;Temp;Humidity;BMP_temperature;BMP_pressure;BME280_temperature;BME280_humidity;BME280_pressure;Samples;Min_cycle;Max_cycle;Signal;HPM_P1;HPM_P2
2020/12/23 00:01:26;;;;;;;6.55;1.45;;;;;;;4.71;92.83;98966.67;1774116;78;22017;-68
2020/12/23 00:03:59;;;;;;;9.55;2.17;;;;;;;4.71;92.79;98970.55;1770827;79;22727;-68
2020/12/23 00:06:39;;;;;;;7.80;1.87;;;;;;;4.68;92.68;98969.82;1719959;80;21254;-68
2020/12/23 00:09:08;;;;;;;5.58;1.67;;;;;;;4.67;92.66;98969.41;1713175;82;21206;-69
2020/12/23 00:11:37;;;;;;;9.78;1.92;;;;;;;4.66;92.71;98971.16;1769601;80;21604;-68
2020/12/23 00:14:09;;;;;;;8.10;1.27;;;;;;;4.63;92.71;98972.56;1767804;79;21676;-67
2020/12/23 00:16:41;;;;;;;5.95;1.45;;;;;;;4.61;92.66;98983.39;1765755;80;21186;-67
2020/12/23 00:19:11;;;;;;;4.70;1.20;;;;;;;4.57;92.59;98987.00;1768561;80;21288;-68
2020/12/23 00:21:38;;;;;;;12.65;1.50;;;;;;;4.56;92.70;99000.80;1746745;80;21143;-68
2020/12/23 00:24:05;;;;;;;;;;;;;;;4.55;92.70;99014.64;1769980;80;21685;-67
2020/12/23 00:26:34;;;;;;;10.98;1.70;;;;;;;4.54;92.53;99009.08;1770314;80;20276;-67
2020/12/23 00:29:01;;;;;;;6.85;1.17;;;;;;;4.51;92.53;99023.41;1769827;80;21230;-68
2020/12/23 00:31:28;;;;;;;7.17;1.37;;;;;;;4.47;92.42;99032.98;1768114;79;28211;-68
2020/12/23 00:33:56;;;;;;;8.70;1.52;;;;;;;4.46;92.18;99033.05;1768422;80;21635;-68
2020/12/23 00:36:23;;;;;;;;;;;;;;;4.45;92.35;99044.27;1771707;80;21202;-67
2020/12/23 00:38:52;;;;;;;5.50;1.05;;;;;;;4.44;92.35;99040.01;1770526;80;20248;-68
2020/12/23 00:41:19;;;;;;;4.78;1.27;;;;;;;4.41;92.15;99043.98;1773218;80;21415;-68
2020/12/23 00:43:46;;;;;;;7.37;1.47;;;;;;;4.39;91.91;99040.14;1770049;79;21247;-68
2020/12/23 00:46:14;;;;;;;9.00;1.10;;;;;;;4.38;91.83;99046.22;1770044;80;21282;-68
2020/12/23 00:48:43;;;;;;;7.87;2.20;;;;;;;4.38;91.93;99047.97;1770477;80;21167;-67
2020/12/23 00:51:15;;;;;;;6.87;1.12;;;;;;;4.39;92.12;99047.06;1767878;79;21126;-67
2020/12/23 00:53:43;;;;;;;6.95;1.15;;;;;;;4.39;92.14;99041.44;1768277;80;21725;-68
2020/12/23 00:56:12;;;;;;;8.50;1.30;;;;;;;4.39;92.10;99031.55;1764962;79;21289;-68
2020/12/23 00:58:40;;;;;;;7.15;1.52;;;;;;;4.38;92.01;99024.70;1765907;80;21130;-68
2020/12/23 01:01:07;;;;;;;6.85;1.20;;;;;;;4.37;92.03;99033.33;1766520;80;21612;-68
2020/12/23 01:03:35;;;;;;;5.85;1.65;;;;;;;4.36;92.08;99034.24;1766619;80;21219;-68
2020/12/23 01:06:11;;;;;;;10.05;2.20;;;;;;;4.36;92.05;99039.41;1766663;79;21315;-67
2020/12/23 01:08:40;;;;;;;4.90;1.22;;;;;;;4.32;91.96;99040.42;1746601;80;21335;-67
2020/12/23 01:11:11;;;;;;;7.83;1.12;;;;;;;4.30;92.08;99046.08;1770520;79;22537;-67
2020/12/23 01:13:39;;;;;;;10.40;2.40;;;;;;;4.29;91.76;99046.98;1740645;80;21764;-68
2020/12/23 01:16:07;;;;;;;16.90;2.67;;;;;;;4.25;91.92;99053.52;1766932;79;21155;-68
2020/12/23 01:18:35;;;;;;;5.50;1.35;;;;;;;4.24;91.97;99055.72;1745127;80;21178;-68
2020/12/23 01:21:03;;;;;;;9.75;1.72;;;;;;;4.24;92.00;99054.42;1744212;79;21143;-68
2020/12/23 01:23:31;;;;;;;5.78;1.20;;;;;;;4.22;91.94;99051.03;1753192;79;21226;-67
2020/12/23 01:25:57;;;;;;;;;;;;;;;4.21;91.93;99051.94;1759182;79;21196;-67
2020/12/23 01:28:25;;;;;;;8.13;1.37;;;;;;;4.19;91.93;99053.72;1728326;79;20306;-67
2020/12/23 01:30:52;;;;;;;9.63;1.45;;;;;;;4.19;92.06;99065.34;1757361;79;21238;-68
2020/12/23 01:33:20;;;;;;;8.05;1.80;;;;;;;4.20;92.08;99059.30;1757700;79;21214;-67
2020/12/23 01:35:47;;;;;;;8.48;1.95;;;;;;;4.20;91.97;99060.59;1757597;79;21796;-68
2020/12/23 01:38:16;;;;;;;6.05;1.92;;;;;;;4.20;92.02;99068.34;1756922;79;21108;-68
2020/12/23 01:40:45;;;;;;;11.10;1.92;;;;;;;4.20;92.06;99073.52;1760607;79;21649;-68
2020/12/23 01:43:15;;;;;;;7.83;1.65;;;;;;;4.23;92.05;99080.33;1757554;79;21507;-68
2020/12/23 01:45:42;;;;;;;8.68;2.27;;;;;;;4.23;91.98;99078.59;1745495;80;21322;-68
2020/12/23 01:48:23;;;;;;;10.55;1.92;;;;;;;4.24;92.00;99093.63;1747500;80;21156;-68
2020/12/23 01:50:51;;;;;;;10.78;1.50;;;;;;;4.25;91.98;99095.31;1759668;79;21235;-68
2020/12/23 01:53:19;;;;;;;10.58;2.20;;;;;;;4.23;91.92;99094.09;1753630;79;21290;-67
2020/12/23 01:55:47;;;;;;;6.65;1.22;;;;;;;4.24;91.94;99107.40;1755874;79;21393;-68
2020/12/23 01:58:16;;;;;;;7.97;2.17;;;;;;;4.26;91.92;99099.16;1751665;79;21262;-67
2020/12/23 02:00:44;;;;;;;6.90;1.62;;;;;;;4.26;91.90;99099.16;1758314;79;21166;-68
2020/12/23 02:03:13;;;;;;;7.22;1.10;;;;;;;4.26;91.77;99103.03;1756313;79;21274;-68
2020/12/23 02:05:42;;;;;;;7.47;1.57;;;;;;;4.26;91.77;99106.91;1755071;79;21197;-68
2020/12/23 02:08:11;;;;;;;6.47;1.57;;;;;;;4.25;91.88;99109.08;1755391;79;21381;-68
2020/12/23 02:10:39;;;;;;;8.33;1.87;;;;;;;4.28;91.81;99111.17;1761418;79;21228;-67
2020/12/23 02:13:06;;;;;;;5.65;2.00;;;;;;;4.24;91.68;99113.86;1751079;79;21682;-68
2020/12/23 02:15:33;;;;;;;6.12;1.57;;;;;;;4.26;91.75;99100.91;1747733;80;23400;-68
2020/12/23 02:18:01;;;;;;;7.95;1.92;;;;;;;4.26;91.69;99104.33;1745091;80;21216;-68
2020/12/23 02:20:28;;;;;;;9.23;1.90;;;;;;;4.26;91.67;99106.07;1746268;80;21411;-68
2020/12/23 02:22:57;;;;;;;9.45;1.65;;;;;;;4.22;91.54;99110.47;1746857;80;21623;-67
2020/12/23 02:25:24;;;;;;;8.03;1.67;;;;;;;4.19;91.60;99114.44;1739703;80;21594;-68
2020/12/23 02:27:52;;;;;;;6.65;1.57;;;;;;;4.17;91.55;99109.79;1744696;80;21614;-68
2020/12/23 02:30:19;;;;;;;;;;;;;;;4.16;91.64;99109.37;1748051;80;21164;-69
2020/12/23 02:32:48;;;;;;;6.17;1.40;;;;;;;4.15;91.61;99117.19;1750092;80;21388;-67
2020/12/23 02:35:17;;;;;;;7.00;1.65;;;;;;;4.15;91.73;99114.16;1756742;79;21255;-68
2020/12/23 02:37:46;;;;;;;7.35;1.67;;;;;;;4.13;91.61;99119.80;1753354;79;21254;-68
2020/12/23 02:40:15;;;;;;;6.53;1.47;;;;;;;4.12;91.61;99111.66;1765907;79;21155;-67
2020/12/23 02:42:47;;;;;;;9.00;1.30;;;;;;;4.12;91.61;99116.83;1742590;80;21272;-68
2020/12/23 02:45:15;;;;;;;7.90;1.12;;;;;;;4.13;91.72;99113.34;1740640;80;21628;-68
2020/12/23 02:47:48;;;;;;;7.15;1.30;;;;;;;4.14;91.63;99114.19;1768013;79;21567;-68
2020/12/23 02:50:18;;;;;;;5.20;1.40;;;;;;;4.14;91.61;99105.98;1759263;79;21254;-67
2020/12/23 02:52:47;;;;;;;9.08;1.55;;;;;;;4.16;91.70;99110.66;1776212;78;21184;-67
2020/12/23 02:55:15;;;;;;;6.83;1.30;;;;;;;4.16;91.65;99111.95;1744813;80;21163;-68
2020/12/23 02:57:42;;;;;;;8.93;1.80;;;;;;;4.14;91.57;99107.27;1769654;79;21384;-68
2020/12/23 03:00:11;;;;;;;6.72;1.37;;;;;;;4.13;91.51;99110.77;1771000;78;21233;-67
2020/12/23 03:02:39;;;;;;;8.93;1.27;;;;;;;4.03;91.49;99106.76;1746065;80;21559;-67
2020/12/23 03:05:06;;;;;;;5.97;1.62;;;;;;;4.06;91.44;99122.16;1771987;78;21243;-67
2020/12/23 03:07:33;;;;;;;12.98;2.10;;;;;;;4.01;91.33;99113.73;1775646;78;21210;-68
2020/12/23 03:10:02;;;;;;;8.55;1.98;;;;;;;3.91;91.22;99109.72;1774402;80;22161;-67
2020/12/23 03:12:36;;;;;;;12.58;2.35;;;;;;;3.84;91.25;99110.78;1784709;78;21681;-67
2020/12/23 03:15:05;;;;;;;8.88;2.08;;;;;;;3.76;91.27;99117.03;1782913;78;21206;-67
2020/12/23 03:17:32;;;;;;;9.25;1.70;;;;;;;3.71;91.42;99118.90;1783709;78;21188;-67
2020/12/23 03:20:00;;;;;;;10.65;1.70;;;;;;;3.68;91.46;99120.73;1773779;80;21632;-67
2020/12/23 03:22:28;;;;;;;7.20;1.15;;;;;;;3.63;91.49;99119.56;1749256;80;21222;-67
2020/12/23 03:24:56;;;;;;;9.03;1.92;;;;;;;3.61;91.44;99120.05;1777272;78;21286;-67
2020/12/23 03:27:24;;;;;;;8.15;2.25;;;;;;;3.59;91.52;99124.42;1780785;78;21415;-67
2020/12/23 03:29:51;;;;;;;11.93;2.40;;;;;;;3.55;91.51;99130.55;1781993;78;21240;-67
2020/12/23 03:32:20;;;;;;;9.83;1.60;;;;;;;3.53;91.51;99132.34;1758589;79;21206;-67
2020/12/23 03:34:48;;;;;;;12.00;1.60;;;;;;;3.51;91.56;99139.28;1773467;79;21404;-67
2020/12/23 03:37:16;;;;;;;7.05;1.47;;;;;;;3.50;91.63;99140.15;1753275;80;21262;-67
2020/12/23 03:39:46;;;;;;;11.60;1.75;;;;;;;3.53;91.67;99145.25;1775947;80;21265;-69
2020/12/23 03:42:16;;;;;;;;;;;;;;;3.56;91.67;99141.30;1762835;80;21205;-67
2020/12/23 03:44:43;;;;;;;9.03;1.57;;;;;;;3.57;91.61;99142.97;1760146;79;20260;-68
2020/12/23 03:47:10;;;;;;;8.33;1.47;;;;;;;3.59;91.68;99150.24;1760729;80;21287;-67
2020/12/23 03:49:40;;;;;;;6.95;1.37;;;;;;;3.61;91.63;99145.02;1759813;79;21160;-67
2020/12/23 03:52:08;;;;;;;8.00;1.62;;;;;;;3.61;91.63;99149.73;1755265;80;21198;-67
2020/12/23 03:54:35;;;;;;;8.83;2.05;;;;;;;3.64;91.65;99144.51;1782606;78;21199;-68
2020/12/23 03:57:02;;;;;;;4.50;1.15;;;;;;;3.66;91.54;99145.73;1781773;78;21133;-68
2020/12/23 03:59:31;;;;;;;5.95;1.80;;;;;;;3.58;91.44;99136.49;1748782;80;25004;-67
2020/12/23 04:01:59;;;;;;;7.28;1.30;;;;;;;3.63;91.44;99157.00;1753835;80;21233;-68
2020/12/23 04:04:26;;;;;;;;;;;;;;;3.62;91.44;99160.48;1778976;80;21255;-68
2020/12/23 04:06:54;;;;;;;5.30;0.98;;;;;;;3.62;91.46;99167.38;1769374;80;20230;-68
2020/12/23 04:09:22;;;;;;;8.73;1.80;;;;;;;3.64;91.52;99172.91;1740471;80;21152;-68
2020/12/23 04:11:51;;;;;;;8.05;1.77;;;;;;;3.67;91.51;99180.56;1753774;80;21279;-68
2020/12/23 04:14:20;;;;;;;7.70;1.72;;;;;;;3.70;91.46;99180.48;1753023;80;21891;-67
2020/12/23 04:16:50;;;;;;;7.85;1.45;;;;;;;3.72;91.48;99182.55;1757296;79;21148;-67
2020/12/23 04:19:18;;;;;;;8.53;2.45;;;;;;;3.76;91.42;99186.75;1748643;80;21192;-68
2020/12/23 04:21:45;;;;;;;10.03;1.47;;;;;;;3.76;91.36;99186.75;1764168;79;21167;-68
2020/12/23 04:24:13;;;;;;;8.43;2.02;;;;;;;3.76;91.31;99189.34;1756499;79;21196;-68
2020/12/23 04:26:40;;;;;;;6.85;1.50;;;;;;;3.76;91.31;99189.34;1758378;80;21585;-67
2020/12/23 04:29:07;;;;;;;6.67;1.50;;;;;;;3.77;91.33;99183.27;1749143;80;21666;-68
2020/12/23 04:31:34;;;;;;;8.15;1.50;;;;;;;3.77;91.29;99193.59;1749400;80;22002;-67
2020/12/23 04:34:02;;;;;;;8.68;1.62;;;;;;;3.77;91.26;99185.02;1746475;80;21231;-68
2020/12/23 04:36:30;;;;;;;9.30;1.62;;;;;;;3.75;91.22;99192.82;1772859;79;21273;-67
2020/12/23 04:38:59;;;;;;;9.00;3.12;;;;;;;3.72;91.13;99195.45;1752592;80;21294;-67
2020/12/23 04:41:28;;;;;;;23.27;11.97;;;;;;;3.66;91.02;99195.63;1770849;80;21291;-68
2020/12/23 04:43:58;;;;;;;27.82;13.50;;;;;;;3.58;90.93;99194.99;1753909;80;21177;-67
2020/12/23 04:46:29;;;;;;;22.90;10.00;;;;;;;3.49;90.89;99190.09;1749232;80;21172;-68
2020/12/23 04:48:58;;;;;;;19.17;9.58;;;;;;;3.41;91.01;99194.61;1757072;80;21255;-68
2020/12/23 04:51:35;;;;;;;22.85;11.15;;;;;;;3.33;91.00;99197.38;1752451;80;21251;-67
2020/12/23 04:54:06;;;;;;;18.92;9.08;;;;;;;3.26;91.04;99197.16;1751136;80;21200;-67
2020/12/23 04:56:35;;;;;;;15.98;5.33;;;;;;;3.19;91.11;99200.31;1771144;79;21203;-67
2020/12/23 04:59:06;;;;;;;9.23;4.35;;;;;;;3.13;91.12;99199.19;1735507;80;21192;-67
2020/12/23 05:01:35;;;;;;;14.60;3.95;;;;;;;3.09;91.26;99207.45;1753686;80;21248;-68
2020/12/23 05:04:04;;;;;;;13.05;5.03;;;;;;;3.04;91.22;99203.30;1787107;78;21183;-67
2020/12/23 05:06:35;;;;;;;10.28;2.40;;;;;;;2.98;91.23;99199.14;1759986;80;21246;-67
2020/12/23 05:09:08;;;;;;;13.00;2.00;;;;;;;2.95;91.31;99207.41;1763445;79;21614;-67
2020/12/23 05:11:37;;;;;;;12.13;1.95;;;;;;;2.91;91.35;99206.19;1764807;79;21135;-67
2020/12/23 05:14:10;;;;;;;10.80;2.47;;;;;;;2.89;91.45;99222.58;1764401;79;21211;-67
2020/12/23 05:16:42;;;;;;;11.55;2.30;;;;;;;2.89;91.60;99217.42;1766715;79;21236;-67
2020/12/23 05:19:09;;;;;;;15.55;3.50;;;;;;;2.94;91.75;99219.88;1762318;79;21618;-68
2020/12/23 05:21:40;;;;;;;11.08;2.95;;;;;;;2.99;91.69;99220.61;1747822;80;21231;-67
2020/12/23 05:24:09;;;;;;;10.95;1.80;;;;;;;3.02;91.58;99220.53;1743499;80;21258;-67
2020/12/23 05:26:43;;;;;;;10.55;2.27;;;;;;;3.05;91.60;99223.03;1719509;80;21381;-67
2020/12/23 05:29:14;;;;;;;13.72;2.33;;;;;;;3.08;91.56;99215.22;1752503;80;21053;-67
2020/12/23 05:31:42;;;;;;;14.87;2.83;;;;;;;3.09;91.60;99214.35;1754358;80;21280;-67
2020/12/23 05:34:10;;;;;;;9.65;1.72;;;;;;;3.11;91.60;99216.46;1750848;80;21180;-68
2020/12/23 05:36:40;;;;;;;12.03;2.77;;;;;;;3.10;91.57;99213.00;1767636;80;21528;-68
2020/12/23 05:39:12;;;;;;;12.45;2.67;;;;;;;3.11;91.55;99221.62;1754468;80;21658;-67
2020/12/23 05:41:40;;;;;;;10.80;2.52;;;;;;;3.13;91.63;99221.11;1750401;80;21238;-68
2020/12/23 05:44:20;;;;;;;11.50;2.62;;;;;;;3.14;91.64;99222.83;1747750;80;21273;-68
2020/12/23 05:46:52;;;;;;;11.65;2.33;;;;;;;3.16;91.61;99221.03;1759993;79;21550;-68
2020/12/23 05:49:24;;;;;;;11.20;2.02;;;;;;;3.17;91.61;99214.17;1762590;79;21259;-67
2020/12/23 05:51:53;;;;;;;15.98;1.98;;;;;;;3.17;91.67;99217.59;1761305;79;22227;-67
2020/12/23 05:54:21;;;;;;;9.48;2.30;;;;;;;3.20;91.72;99225.70;1764091;79;21235;-67
2020/12/23 05:56:52;;;;;;;7.58;2.50;;;;;;;3.19;91.64;99220.95;1764725;79;21202;-67
2020/12/23 05:59:21;;;;;;;13.25;3.40;;;;;;;3.19;91.66;99228.69;1750166;80;21172;-68
2020/12/23 06:01:50;;;;;;;8.28;2.15;;;;;;;3.21;91.78;99226.93;1754377;80;21132;-67
2020/12/23 06:04:17;;;;;;;10.55;3.10;;;;;;;3.24;91.74;99222.98;1757218;79;21328;-67
2020/12/23 06:06:46;;;;;;;13.68;2.83;;;;;;;3.25;91.67;99228.56;1759732;80;21239;-68
2020/12/23 06:09:17;;;;;;;20.10;3.02;;;;;;;3.24;91.56;99242.33;1745662;80;21190;-68
2020/12/23 06:11:51;;;;;;;15.18;3.25;;;;;;;3.20;91.55;99234.73;1745646;80;21236;-67
2020/12/23 06:14:25;;;;;;;15.13;2.58;;;;;;;3.18;91.63;99239.91;1744903;80;21207;-68
2020/12/23 06:17:03;;;;;;;10.48;2.22;;;;;;;3.18;91.66;99244.23;1745458;80;21201;-68
2020/12/23 06:19:36;;;;;;;18.23;4.00;;;;;;;3.17;91.70;99251.12;1745513;80;21184;-68
2020/12/23 06:22:08;;;;;;;17.92;3.45;;;;;;;3.20;91.84;99248.47;1744603;80;21302;-67
2020/12/23 06:24:38;;;;;;;19.42;3.45;;;;;;;3.24;91.90;99247.49;1743297;80;21167;-68
2020/12/23 06:27:09;;;;;;;11.95;2.50;;;;;;;3.30;91.98;99257.66;1746041;80;21164;-68
2020/12/23 06:29:46;;;;;;;7.17;2.65;;;;;;;3.36;91.96;99262.69;1744392;80;21259;-67
2020/12/23 06:32:24;;;;;;;9.35;2.30;;;;;;;3.43;91.91;99265.95;1743162;80;21186;-68
2020/12/23 06:35:00;;;;;;;16.32;3.70;;;;;;;3.46;91.74;99263.28;1743854;80;21203;-67
2020/12/23 06:37:38;;;;;;;16.73;4.35;;;;;;;3.45;91.64;99262.05;1744688;80;21187;-67
2020/12/23 06:40:11;;;;;;;16.05;4.45;;;;;;;3.44;91.65;99262.92;1762616;79;21143;-67
2020/12/23 06:42:51;;;;;;;11.38;3.02;;;;;;;3.41;91.61;99264.28;1763928;79;21696;-67
2020/12/23 06:45:26;;;;;;;16.75;3.72;;;;;;;3.39;91.62;99260.89;1762507;80;21199;-67
2020/12/23 06:47:59;;;;;;;11.05;3.60;;;;;;;3.35;91.62;99263.55;1764937;79;21154;-67
2020/12/23 06:50:41;;;;;;;;;;;;;;;;;;;;;
2020/12/23 06:53:38;;;;;;;12.65;3.17;;;;;;;3.33;91.64;99259.31;1783667;77;22818;-67
2020/12/23 06:56:07;;;;;;;10.98;2.72;;;;;;;3.27;91.68;99259.47;1746031;80;21650;-68
2020/12/23 07:01:23;;;;;;;21.00;3.75;;;;;;;3.31;91.79;99255.50;1818727;76;22722;-68
2020/12/23 07:03:52;;;;;;;13.38;3.30;;;;;;;3.29;91.76;99258.55;1800713;77;26791;-68
2020/12/23 07:06:32;;;;;;;15.03;3.92;;;;;;;3.28;91.73;99262.03;1801683;77;22885;-68
2020/12/23 07:09:11;;;;;;;13.60;2.72;;;;;;;3.26;91.69;99268.11;1803899;77;21051;-68
2020/12/23 07:11:41;;;;;;;16.20;3.20;;;;;;;3.25;91.72;99265.98;1781988;78;21084;-68
2020/12/23 07:14:15;;;;;;;10.10;2.33;;;;;;;3.24;91.72;99275.88;1740912;79;21112;-68
2020/12/23 07:16:46;;;;;;;16.42;2.47;;;;;;;3.25;91.73;99279.30;1740449;80;21730;-68
2020/12/23 07:19:36;;;;;;;14.20;3.08;;;;;;;3.23;91.70;99284.95;1736554;80;21204;-68
2020/12/23 07:22:06;;;;;;;13.85;2.17;;;;;;;3.21;91.70;99279.82;1702565;82;21609;-67
2020/12/23 07:24:36;;;;;;;10.45;2.70;;;;;;;3.20;91.65;99287.17;1707274;82;21231;-67
2020/12/23 07:27:09;;;;;;;10.63;2.58;;;;;;;3.21;91.69;99294.46;1708340;83;21258;-68
2020/12/23 07:29:40;;;;;;;17.30;2.30;;;;;;;3.22;91.70;99287.11;1708833;82;21238;-71
2020/12/23 07:32:11;;;;;;;12.73;2.70;;;;;;;3.26;91.73;99299.91;1708467;82;21258;-71
2020/12/23 07:34:45;;;;;;;13.18;2.30;;;;;;;3.30;91.73;99297.65;1706761;82;21734;-72
2020/12/23 07:37:12;;;;;;;10.50;2.77;;;;;;;3.36;91.66;99301.39;1680479;83;21638;-70
2020/12/23 07:39:40;;;;;;;13.53;2.77;;;;;;;3.40;91.62;99305.19;1709934;82;21045;-70
2020/12/23 07:42:16;;;;;;;13.65;2.65;;;;;;;3.44;91.62;99318.41;1717955;82;21239;-70
2020/12/23 07:44:53;;;;;;;9.77;3.13;;;;;;;3.49;91.55;99320.44;1694401;83;22224;-70
2020/12/23 07:47:24;;;;;;;9.40;2.35;;;;;;;3.53;91.64;99316.46;1695401;83;21651;-70
2020/12/23 07:50:01;;;;;;;21.27;5.78;;;;;;;3.62;91.71;99315.37;1676843;83;21268;-70
2020/12/23 07:52:29;;;;;;;15.25;3.27;;;;;;;3.71;91.68;99312.55;1670434;84;21220;-70
2020/12/23 07:55:15;;;;;;;8.20;2.37;;;;;;;3.81;91.63;99319.63;1693441;83;21198;-70
2020/12/23 07:57:52;;;;;;;12.30;2.67;;;;;;;3.88;91.59;99321.15;1694323;83;22055;-70
2020/12/23 08:00:22;;;;;;;15.85;2.92;;;;;;;3.94;91.47;99324.02;1699582;83;21261;-70
2020/12/23 08:02:53;;;;;;;16.02;2.90;;;;;;;4.04;91.49;99322.89;1705500;83;21255;-69
2020/12/23 08:05:27;;;;;;;7.90;2.17;;;;;;;4.11;91.47;99317.94;1705328;83;26650;-70
2020/12/23 08:07:56;;;;;;;12.73;2.50;;;;;;;4.16;91.32;99330.30;1705129;83;23002;-70
2020/12/23 08:10:28;;;;;;;12.73;2.95;;;;;;;4.20;91.22;99325.88;1705757;82;21677;-70
2020/12/23 08:13:01;;;;;;;12.18;3.83;;;;;;;4.21;91.19;99323.27;1702843;82;21672;-70
2020/12/23 08:15:36;;;;;;;10.75;2.17;;;;;;;4.24;91.17;99328.34;1704990;82;21287;-70
2020/12/23 08:18:10;;;;;;;11.50;2.58;;;;;;;4.28;91.18;99330.84;1704214;82;21186;-70
2020/12/23 08:20:43;;;;;;;9.98;2.12;;;;;;;4.30;91.16;99331.66;1702929;83;21214;-71
2020/12/23 08:23:19;;;;;;;11.15;3.27;;;;;;;4.31;91.05;99330.76;1702799;82;21723;-70
2020/12/23 08:25:53;;;;;;;9.58;2.85;;;;;;;4.30;91.00;99331.66;1674994;84;21289;-70
2020/12/23 08:28:25;;;;;;;11.90;3.45;;;;;;;4.29;90.96;99325.65;1703300;82;21215;-69
2020/12/23 08:30:55;;;;;;;13.83;2.70;;;;;;;4.24;90.83;99330.94;1703498;82;21202;-68
2020/12/23 08:33:26;;;;;;;10.38;2.58;;;;;;;4.22;90.92;99343.05;1700516;82;21131;-68
2020/12/23 08:36:05;;;;;;;8.43;2.05;;;;;;;4.21;90.92;99338.77;1699614;82;21284;-69
2020/12/23 08:41:20;;;;;;;12.82;2.80;;;;;;;4.26;90.99;99347.25;1829269;77;22798;-68
2020/12/23 08:43:52;;;;;;;12.78;3.20;;;;;;;4.23;91.07;99343.47;1799210;78;21084;-69
2020/12/23 08:46:27;;;;;;;11.55;3.40;;;;;;;4.23;91.05;99347.34;1801419;78;22258;-69
2020/12/23 08:49:00;;;;;;;12.90;3.20;;;;;;;4.24;91.06;99350.31;1800792;78;28796;-69
2020/12/23 08:51:31;;;;;;;9.70;2.95;;;;;;;4.23;91.08;99349.92;1798996;78;21151;-69
2020/12/23 08:54:12;;;;;;;13.35;3.70;;;;;;;4.22;91.06;99358.55;1772323;78;21262;-69
2020/12/23 08:56:49;;;;;;;13.15;2.58;;;;;;;4.19;91.11;99345.71;1803743;78;21155;-68
2020/12/23 08:59:23;;;;;;;9.68;2.72;;;;;;;4.22;91.13;99348.21;1800710;78;21209;-69
2020/12/23 09:01:53;;;;;;;11.10;3.22;;;;;;;4.28;91.18;99354.11;1803338;78;21052;-69
2020/12/23 09:04:26;;;;;;;12.25;3.20;;;;;;;4.34;91.25;99346.17;1801486;78;21683;-69
2020/12/23 09:06:59;;;;;;;14.65;3.70;;;;;;;4.41;91.21;99349.01;1805309;78;21147;-69
2020/12/23 09:09:36;;;;;;;;;;;;;;;4.45;91.24;99346.72;1800101;78;21712;-68
2020/12/23 09:12:10;;;;;;;8.50;3.33;;;;;;;4.50;91.28;99351.33;1802357;78;21257;-69
2020/12/23 09:14:46;;;;;;;13.53;4.05;;;;;;;4.62;91.20;99347.11;1854096;75;22662;-68
2020/12/23 09:17:22;;;;;;;;;;;;;;;4.68;91.35;99354.69;1834031;77;20965;-69
2020/12/23 09:22:45;;;;;;;13.60;4.17;;;;;;;4.85;91.12;99358.52;1865616;75;22804;-68
2020/12/23 09:25:25;;;;;;;16.32;4.65;;;;;;;4.85;91.17;99358.52;1836071;77;21214;-69
2020/12/23 09:28:08;;;;;;;17.40;4.22;;;;;;;4.91;91.11;99351.41;1834521;77;22173;-68
2020/12/23 09:31:00;;;;;;;14.07;5.17;;;;;;;5.03;91.06;99350.19;1833178;76;21158;-67
2020/12/23 09:33:40;;;;;;;11.90;5.47;;;;;;;5.15;91.18;99355.00;1834081;77;21194;-67
2020/12/23 09:36:13;;;;;;;18.67;5.55;;;;;;;5.25;90.96;99352.13;1835417;77;21593;-67
2020/12/23 09:41:23;;;;;;;8.20;2.27;;;;;;;5.26;90.47;99350.77;1827468;77;24058;-67
2020/12/23 09:43:52;;;;;;;9.75;3.10;;;;;;;5.20;90.55;99330.70;1799273;78;21123;-68
2020/12/23 09:46:24;;;;;;;11.18;3.37;;;;;;;5.20;90.69;99341.06;1796564;78;22240;-67
2020/12/23 09:48:54;;;;;;;12.43;3.90;;;;;;;5.28;90.80;99339.08;1797615;78;22230;-67
2020/12/23 09:51:26;;;;;;;9.28;2.72;;;;;;;5.36;90.77;99337.09;1800259;78;21231;-68
2020/12/23 09:53:54;;;;;;;12.15;2.77;;;;;;;5.38;90.43;99334.02;1797025;78;21190;-68
2020/12/23 09:56:23;;;;;;;9.48;2.75;;;;;;;5.38;90.46;99335.31;1796588;78;21127;-66
2020/12/23 09:58:54;;;;;;;10.75;2.85;;;;;;;5.41;90.36;99332.63;1797355;78;21045;-67
2020/12/23 10:01:22;;;;;;;12.18;2.80;;;;;;;5.41;90.37;99331.78;1797416;78;21203;-67
2020/12/23 10:03:51;;;;;;;11.43;2.75;;;;;;;5.43;90.46;99330.80;1797016;78;21091;-68
2020/12/23 10:06:18;;;;;;;10.88;2.58;;;;;;;5.39;90.26;99342.17;1797650;78;21171;-68
2020/12/23 10:08:45;;;;;;;14.53;2.65;;;;;;;5.35;90.24;99332.83;1794942;78;21178;-69
2020/12/23 10:11:12;;;;;;;10.53;2.72;;;;;;;5.24;89.91;99338.80;1797206;78;21241;-69
2020/12/23 10:13:40;;;;;;;10.10;3.08;;;;;;;5.22;90.11;99338.83;1796518;78;21131;-68
2020/12/23 10:16:07;;;;;;;13.00;2.87;;;;;;;5.18;90.16;99337.66;1796287;78;21260;-68
2020/12/23 10:18:36;;;;;;;8.23;2.98;;;;;;;5.16;90.19;99332.10;1796037;78;21208;-68
2020/12/23 10:21:03;;;;;;;11.43;2.45;;;;;;;5.14;90.23;99322.23;1794490;78;21304;-67
2020/12/23 10:23:33;;;;;;;7.67;2.35;;;;;;;5.16;90.23;99320.45;1795328;78;21188;-67
2020/12/23 10:26:00;;;;;;;9.55;2.15;;;;;;;5.15;90.30;99311.01;1798260;78;21150;-67
2020/12/23 10:28:27;;;;;;;14.33;3.08;;;;;;;5.19;90.34;99313.50;1797455;78;21222;-70
2020/12/23 10:30:56;;;;;;;14.63;3.62;;;;;;;5.23;90.44;99325.43;1796136;78;21025;-68
2020/12/23 10:33:24;;;;;;;10.88;2.83;;;;;;;5.30;90.50;99319.17;1795846;78;21276;-67
2020/12/23 10:35:52;;;;;;;8.93;2.00;;;;;;;5.36;90.53;99322.41;1795942;78;21394;-67
2020/12/23 10:38:20;;;;;;;6.05;1.90;;;;;;;5.44;90.39;99327.34;1799919;78;21171;-66
2020/12/23 10:40:50;;;;;;;7.37;1.75;;;;;;;5.46;90.38;99303.97;1786837;78;21207;-67
2020/12/23 10:43:20;;;;;;;11.80;2.22;;;;;;;5.50;90.38;99306.42;1752260;80;21191;-67
2020/12/23 10:45:53;;;;;;;13.05;3.02;;;;;;;5.61;90.48;99305.61;1732280;81;21636;-66
2020/12/23 10:48:24;;;;;;;8.50;2.52;;;;;;;5.73;90.43;99307.39;1722352;81;21264;-68
2020/12/23 10:50:53;;;;;;;7.22;1.85;;;;;;;5.81;90.36;99311.86;1724644;81;21247;-66
2020/12/23 10:53:23;;;;;;;5.85;2.05;;;;;;;5.92;90.31;99312.34;1727687;81;21191;-66
2020/12/23 10:55:50;;;;;;;7.30;2.15;;;;;;;5.98;90.12;99310.02;1745445;81;21154;-68
2020/12/23 10:58:22;;;;;;;7.92;2.40;;;;;;;5.98;90.01;99310.85;1722629;81;21276;-67
2020/12/23 11:00:55;;;;;;;5.95;2.10;;;;;;;6.06;90.08;99302.81;1728030;80;21301;-67
2020/12/23 11:03:25;;;;;;;9.80;2.30;;;;;;;6.09;89.76;99303.16;1751580;80;21221;-67
2020/12/23 11:06:01;;;;;;;13.43;2.47;;;;;;;6.06;89.75;99311.89;1726899;81;22392;-67
2020/12/23 11:08:28;;;;;;;7.33;2.25;;;;;;;6.19;89.94;99314.87;1743289;80;21067;-68
2020/12/23 11:10:59;;;;;;;8.78;2.30;;;;;;;6.30;89.93;99317.92;1742203;80;21179;-67
2020/12/23 11:13:26;;;;;;;11.08;2.40;;;;;;;6.38;89.69;99314.60;1726457;81;22191;-67
2020/12/23 11:15:53;;;;;;;11.70;2.35;;;;;;;6.38;89.50;99314.60;1719690;81;21228;-67
2020/12/23 11:18:23;;;;;;;;;;;;;;;6.40;89.28;99317.99;1743690;80;21167;-68
2020/12/23 11:20:51;;;;;;;8.83;2.25;;;;;;;6.43;89.32;99304.91;1748400;80;20249;-67
2020/12/23 11:23:31;;;;;;;10.32;2.95;;;;;;;6.40;88.99;99303.73;1730813;81;21617;-66
2020/12/23 11:26:28;;;;;;;11.03;2.67;;;;;;;6.41;89.27;99306.73;1741716;80;21892;-67
2020/12/23 11:28:55;;;;;;;9.78;2.20;;;;;;;6.41;89.04;99293.77;1729402;81;21232;-67
2020/12/23 11:31:23;;;;;;;5.60;2.00;;;;;;;6.26;88.65;99295.61;1729063;80;21263;-67
2020/12/23 11:33:57;;;;;;;12.63;1.92;;;;;;;6.17;88.63;99305.03;1733512;81;21284;-66
2020/12/23 11:36:27;;;;;;;8.20;1.75;;;;;;;6.10;88.75;99298.36;1750697;80;21202;-67
2020/12/23 11:38:54;;;;;;;11.08;2.00;;;;;;;6.10;88.88;99300.95;1752347;80;21143;-67
2020/12/23 11:41:22;;;;;;;14.75;2.58;;;;;;;6.05;88.70;99298.09;1756023;79;21599;-67
2020/12/23 11:43:52;;;;;;;8.23;2.12;;;;;;;6.02;88.85;99296.91;1707979;82;22014;-66
2020/12/23 11:46:21;;;;;;;8.60;2.33;;;;;;;5.91;88.60;99305.47;1722479;82;21171;-66
2020/12/23 11:48:48;;;;;;;13.05;3.12;;;;;;;5.81;88.54;99302.80;1721831;82;21249;-67
2020/12/23 11:51:15;;;;;;;8.18;2.40;;;;;;;5.70;88.58;99291.95;1721501;82;21402;-68
2020/12/23 11:53:43;;;;;;;6.15;2.15;;;;;;;5.61;88.57;99294.41;1719167;82;21664;-68
2020/12/23 11:56:13;;;;;;;8.08;2.40;;;;;;;5.53;88.58;99306.31;1757673;80;21830;-68
2020/12/23 11:58:42;;;;;;;11.12;2.85;;;;;;;5.50;88.73;99303.83;1759437;80;21854;-68
2020/12/23 12:01:10;;;;;;;8.50;2.83;;;;;;;5.45;88.75;99310.89;1761273;80;21112;-67
2020/12/23 12:03:40;;;;;;;;;;;;;;;5.41;88.74;99311.91;1760408;80;21916;-67
2020/12/23 12:06:08;;;;;;;7.50;2.35;;;;;;;5.35;88.65;99314.25;1758557;80;20679;-67
2020/12/23 12:08:36;;;;;;;;;;;;;;;5.27;88.66;99320.13;1762213;79;21194;-67